North Charleroi, Pennsylvania
Current Conditions -  °F | °C
As of 9:53 PM on Thursday 20 Nov 2014 (Local Time) from KAGC Reporting Station
Overcast Overcast  
Wind Chill: 14°   Ceiling: 6000
Heat Index: 24°   Visibility: 10mi
Dew Point: 11°   Wind: 9mph
Humidity: 57%   Direction: 280°W
Pressure: 30.09"   Gusts: 18mph
Location:  40.1402°N, 79.9469°W
Report Text: KAGC 210253Z 28008G16KT 10SM SCT032 OVC060 M04/M12 A3009 RMK AO2 SLP212 T10441117 53013
Loading
Personal Weather Stations






























Interactive Weather Map New forecast layout! Learn more

10-Day Weather Forecast

Advertisements
Track Severe Weather on mobile